Terminal Aerodrome Forecast
Issued by NWS Wilmington, OH

Home | Current Version | Previous Version | Text Only | Print | Product List | Glossary On
Versions: 1 2 3 4 5 6 7 8 9 10 11 12 13 14 15 16 17 18 19 20 21
453
FTUS41 KILN 300912 AAA
TAFCVG
TAF AMD
KCVG 300912Z 3009/3112 11010KT P6SM BKN150
     FM301200 16012KT P6SM SCT050 OVC090
     FM301700 18014G25KT P6SM VCSH BKN050
     FM310000 19011KT P6SM VCSH BKN060 OVC100
     FM310200 18010KT 5SM -TSRA BR SCT015 OVC035CB
     FM310500 22010KT 5SM -SHRA BR VCTS OVC018CB=

USA.gov is the U.S. government's official web portal to all federal, state and local government web resources and services.